createdAt,value
2019-05-29T00:00:43.100Z,6.70
2019-05-29T00:03:14.495Z,6.80
2019-05-29T00:05:43.675Z,6.47
2019-05-29T00:08:14.665Z,7.90
2019-05-29T00:10:44.565Z,7.40
2019-05-29T00:13:14.872Z,8.37
2019-05-29T00:15:44.448Z,8.13
2019-05-29T00:18:14.707Z,8.10
2019-05-29T00:20:45.665Z,8.37
2019-05-29T00:23:15.301Z,8.47
2019-05-29T00:25:44.762Z,8.67
2019-05-29T00:28:16.746Z,8.30
2019-05-29T00:30:47.146Z,8.80
2019-05-29T00:33:18.344Z,9.27
2019-05-29T00:35:48.848Z,9.47
2019-05-29T00:38:18.598Z,8.27
2019-05-29T00:40:49.552Z,9.67
2019-05-29T00:43:19.050Z,9.10
2019-05-29T00:45:49.599Z,9.10
2019-05-29T00:48:19.049Z,9.37
2019-05-29T00:50:48.669Z,9.63
2019-05-29T00:53:18.464Z,9.73
2019-05-29T00:55:47.930Z,9.47
2019-05-29T00:58:19.829Z,9.33
2019-05-29T01:00:50.108Z,9.40
2019-05-29T01:03:19.786Z,9.77
2019-05-29T01:05:51.744Z,9.67
2019-05-29T01:08:21.773Z,8.90
2019-05-29T01:10:51.753Z,9.20
2019-05-29T01:13:22.364Z,8.70
2019-05-29T01:15:52.131Z,7.93
2019-05-29T01:18:22.346Z,6.77
2019-05-29T01:20:51.932Z,6.30
2019-05-29T01:23:22.423Z,6.80
2019-05-29T01:25:52.416Z,7.50
2019-05-29T01:28:23.140Z,7.33
2019-05-29T01:30:56.367Z,6.80
2019-05-29T01:33:26.294Z,5.60
2019-05-29T01:35:55.773Z,5.17
2019-05-29T01:38:25.776Z,4.67
2019-05-29T01:40:55.018Z,4.40
2019-05-29T01:43:27.856Z,4.70
2019-05-29T01:45:59.317Z,5.00
2019-05-29T01:48:29.838Z,5.37
2019-05-29T01:50:59.591Z,4.83
2019-05-29T01:53:29.109Z,5.20
2019-05-29T01:55:58.869Z,5.00
2019-05-29T01:58:30.759Z,5.37
2019-05-29T02:01:00.741Z,5.77
2019-05-29T02:03:30.240Z,5.60
2019-05-29T02:06:01.081Z,6.07
2019-05-29T02:08:30.453Z,5.70
2019-05-29T02:11:00.888Z,6.07
2019-05-29T02:13:30.337Z,6.00
2019-05-29T02:16:00.568Z,5.77
2019-05-29T02:18:34.138Z,6.53
2019-05-29T02:21:04.033Z,5.73
2019-05-29T02:23:35.324Z,5.33
2019-05-29T02:26:06.935Z,6.20
2019-05-29T02:28:36.374Z,5.77
2019-05-29T02:31:06.089Z,5.53
2019-05-29T02:33:35.533Z,5.70
2019-05-29T02:36:04.814Z,5.30
2019-05-29T02:38:34.612Z,5.30
2019-05-29T02:41:04.149Z,5.63
2019-05-29T02:43:33.605Z,5.73
2019-05-29T02:46:04.121Z,5.47
2019-05-29T02:48:33.862Z,5.63
2019-05-29T02:51:03.850Z,4.83
2019-05-29T02:53:33.330Z,5.00
2019-05-29T02:56:02.859Z,4.63
2019-05-29T02:58:33.471Z,4.57
2019-05-29T03:01:05.389Z,4.30
2019-05-29T03:03:39.973Z,4.40
2019-05-29T03:06:06.142Z,4.10
2019-05-29T03:08:36.016Z,4.43
2019-05-29T03:11:06.425Z,4.37
2019-05-29T03:13:37.568Z,4.97
2019-05-29T03:16:11.991Z,5.10
2019-05-29T03:18:40.828Z,5.47
2019-05-29T03:21:10.407Z,5.07
2019-05-29T03:23:39.702Z,4.43
2019-05-29T03:26:09.659Z,4.93
2019-05-29T03:28:38.854Z,4.03
2019-05-29T03:31:08.299Z,4.40
2019-05-29T03:33:44.950Z,4.53
2019-05-29T03:36:10.766Z,4.67
2019-05-29T03:38:43.686Z,4.93
2019-05-29T03:41:13.439Z,4.50
2019-05-29T03:43:43.227Z,4.20
2019-05-29T03:46:29.853Z,3.93
2019-05-29T03:48:44.312Z,3.50
2019-05-29T03:51:16.963Z,3.60
2019-05-29T03:53:48.890Z,3.47
2019-05-29T03:56:18.826Z,3.70
2019-05-29T03:58:50.343Z,3.47
2019-05-29T04:01:20.647Z,3.10
2019-05-29T04:03:54.337Z,3.60
2019-05-29T04:06:23.615Z,3.73
2019-05-29T04:08:54.726Z,3.73
2019-05-29T04:11:24.680Z,3.50
2019-05-29T04:13:55.567Z,3.47
2019-05-29T04:16:29.177Z,3.50
2019-05-29T04:18:59.964Z,3.63
2019-05-29T04:21:32.597Z,3.40
2019-05-29T04:24:07.134Z,3.90
2019-05-29T04:26:45.807Z,3.80
2019-05-29T04:29:16.358Z,3.90
2019-05-29T04:31:45.856Z,4.13
2019-05-29T04:34:15.595Z,4.33
2019-05-29T04:36:45.541Z,4.10
2019-05-29T04:39:16.048Z,3.10
2019-05-29T04:41:47.810Z,2.97
2019-05-29T04:44:17.258Z,3.17
2019-05-29T04:46:46.763Z,3.20
2019-05-29T04:49:20.356Z,3.60
2019-05-29T04:51:50.662Z,3.80
2019-05-29T04:54:22.087Z,4.33
2019-05-29T04:56:52.497Z,4.10
2019-05-29T04:59:22.448Z,4.17
2019-05-29T05:01:53.431Z,4.20
2019-05-29T05:04:22.889Z,3.83
2019-05-29T05:06:53.140Z,4.17
2019-05-29T05:09:23.558Z,3.77
2019-05-29T05:11:55.284Z,3.57
2019-05-29T05:14:24.745Z,3.73
2019-05-29T05:16:55.708Z,3.40
2019-05-29T05:19:28.063Z,3.60
2019-05-29T05:21:57.536Z,3.40
2019-05-29T05:24:32.504Z,3.83
2019-05-29T05:27:04.119Z,3.80
2019-05-29T05:29:34.193Z,3.20
2019-05-29T05:32:04.748Z,3.20
2019-05-29T05:34:34.734Z,3.10
2019-05-29T05:37:04.517Z,3.20
2019-05-29T05:39:35.205Z,3.20
2019-05-29T05:42:05.372Z,3.40
2019-05-29T05:44:35.388Z,3.77
2019-05-29T05:47:05.101Z,3.10
2019-05-29T05:49:35.717Z,2.80
2019-05-29T05:52:05.531Z,2.80
2019-05-29T05:54:35.606Z,2.83
2019-05-29T05:57:07.507Z,2.93
2019-05-29T05:59:37.708Z,2.70
2019-05-29T06:02:10.413Z,2.70
2019-05-29T06:04:40.057Z,2.80
2019-05-29T06:07:09.497Z,2.63
2019-05-29T06:09:40.311Z,2.43
2019-05-29T06:12:12.109Z,2.60
2019-05-29T06:14:42.795Z,3.47
2019-05-29T06:17:13.347Z,3.43
2019-05-29T06:19:45.886Z,3.30
2019-05-29T06:22:16.060Z,2.63
2019-05-29T06:24:47.527Z,3.27
2019-05-29T06:27:19.549Z,3.57
2019-05-29T06:29:51.274Z,3.80
2019-05-29T06:32:20.909Z,4.27
2019-05-29T06:34:51.594Z,3.57
2019-05-29T06:37:23.558Z,3.40
2019-05-29T06:39:56.342Z,2.93
2019-05-29T06:42:27.039Z,2.53
2019-05-29T06:44:59.009Z,2.63
2019-05-29T06:47:28.145Z,3.40
2019-05-29T06:49:58.142Z,2.63
2019-05-29T06:52:28.456Z,2.60
2019-05-29T06:54:57.789Z,4.87
2019-05-29T06:57:27.113Z,3.10
2019-05-29T06:59:56.945Z,3.27
2019-05-29T07:02:26.539Z,2.90
2019-05-29T07:04:55.729Z,2.83
2019-05-29T07:07:27.817Z,2.57
2019-05-29T07:09:57.312Z,2.33
2019-05-29T07:12:26.481Z,2.07
2019-05-29T07:14:56.223Z,2.10
2019-05-29T07:17:25.412Z,2.40
2019-05-29T07:20:03.393Z,2.43
2019-05-29T07:22:26.358Z,1.93
2019-05-29T07:24:55.847Z,2.00
2019-05-29T07:27:25.311Z,2.00
2019-05-29T07:29:55.488Z,2.00
2019-05-29T07:32:24.711Z,1.90
2019-05-29T07:35:03.106Z,1.90
2019-05-29T07:37:26.701Z,1.80
2019-05-29T07:39:55.953Z,2.10
2019-05-29T07:42:26.341Z,2.30
2019-05-29T07:44:55.562Z,1.93
2019-05-29T07:47:25.007Z,1.80
2019-05-29T07:49:54.793Z,1.90
2019-05-29T07:52:24.768Z,2.10
2019-05-29T07:54:53.947Z,1.90
2019-05-29T07:57:23.269Z,2.30
2019-05-29T07:59:53.635Z,2.20
2019-05-29T08:02:23.582Z,2.00
2019-05-29T08:04:52.849Z,1.80
2019-05-29T08:07:33.844Z,2.23
2019-05-29T08:10:04.107Z,1.97
2019-05-29T08:12:33.825Z,1.83
2019-05-29T08:15:03.662Z,1.97
2019-05-29T08:17:34.205Z,1.93
2019-05-29T08:20:07.611Z,2.30
2019-05-29T08:22:35.470Z,1.80
2019-05-29T08:25:05.125Z,2.10
2019-05-29T08:27:34.433Z,2.43
2019-05-29T08:30:03.657Z,2.27
2019-05-29T08:32:32.866Z,2.20
2019-05-29T08:35:02.853Z,2.30
2019-05-29T08:37:32.617Z,2.10
2019-05-29T08:40:01.779Z,2.03
2019-05-29T08:42:31.254Z,2.37
2019-05-29T08:45:00.454Z,2.60
2019-05-29T08:47:30.446Z,2.30
2019-05-29T08:50:16.726Z,2.20
2019-05-29T08:52:30.525Z,2.60
2019-05-29T08:54:59.838Z,2.10
2019-05-29T08:57:29.019Z,2.60
2019-05-29T08:59:58.433Z,2.73
2019-05-29T09:02:27.633Z,2.50
2019-05-29T09:04:56.808Z,2.10
2019-05-29T09:07:26.012Z,2.40
2019-05-29T09:09:55.215Z,2.70
2019-05-29T09:12:25.167Z,3.07
2019-05-29T09:14:55.836Z,3.10
2019-05-29T09:17:25.030Z,2.90
2019-05-29T09:19:54.976Z,2.83
2019-05-29T09:22:24.438Z,2.63
2019-05-29T09:24:54.911Z,2.70
2019-05-29T09:27:24.684Z,2.60
2019-05-29T09:29:54.137Z,2.70
2019-05-29T09:32:47.568Z,2.67
2019-05-29T09:34:55.819Z,3.00
2019-05-29T09:37:25.285Z,2.30
2019-05-29T09:39:55.250Z,2.53
2019-05-29T09:42:25.534Z,2.10
2019-05-29T09:44:54.693Z,2.30
2019-05-29T09:47:26.408Z,2.60
2019-05-29T09:49:56.020Z,2.20
2019-05-29T09:52:25.957Z,2.40
2019-05-29T09:54:56.177Z,3.20
2019-05-29T09:57:26.788Z,2.50
2019-05-29T09:59:57.984Z,2.13
2019-05-29T10:02:26.879Z,2.40
2019-05-29T10:04:56.558Z,2.23
2019-05-29T10:07:27.047Z,2.00
2019-05-29T10:09:58.617Z,2.20
2019-05-29T10:12:29.162Z,2.20
2019-05-29T10:14:59.018Z,2.00
2019-05-29T10:17:31.091Z,2.00
2019-05-29T10:20:00.820Z,1.63
2019-05-29T10:22:30.292Z,1.83
2019-05-29T10:24:59.995Z,1.90
2019-05-29T10:27:29.260Z,1.30
2019-05-29T10:29:58.613Z,1.60
2019-05-29T10:32:27.804Z,1.70
2019-05-29T10:34:57.962Z,1.60
2019-05-29T10:37:28.001Z,1.40
2019-05-29T10:39:57.244Z,1.87
2019-05-29T10:42:30.323Z,1.80
2019-05-29T10:44:59.800Z,1.77
2019-05-29T10:47:28.973Z,1.60
2019-05-29T10:49:58.176Z,1.70
2019-05-29T10:52:27.702Z,1.60
2019-05-29T10:54:57.868Z,1.60
2019-05-29T10:57:29.366Z,1.57
2019-05-29T10:59:58.579Z,1.50
2019-05-29T11:02:28.037Z,1.43
2019-05-29T11:05:00.203Z,1.27
2019-05-29T11:07:33.080Z,1.50
2019-05-29T11:10:07.721Z,1.37
2019-05-29T11:12:39.555Z,1.40
2019-05-29T11:15:20.825Z,1.60
2019-05-29T11:17:41.808Z,1.30
2019-05-29T11:20:11.815Z,1.60
2019-05-29T11:22:41.876Z,1.17
2019-05-29T11:25:22.366Z,1.20
2019-05-29T11:27:44.646Z,1.40
2019-05-29T11:30:14.310Z,1.40
2019-05-29T11:32:47.329Z,1.10
2019-05-29T11:35:14.918Z,1.20
2019-05-29T11:37:44.497Z,1.10
2019-05-29T11:40:14.184Z,1.20
2019-05-29T11:42:44.169Z,1.40
2019-05-29T11:45:15.954Z,1.23
2019-05-29T11:47:45.522Z,1.27
2019-05-29T11:50:19.654Z,1.23
2019-05-29T11:52:50.193Z,1.20
2019-05-29T11:55:21.149Z,0.90
2019-05-29T11:57:51.818Z,1.20
2019-05-29T12:00:22.048Z,1.00
2019-05-29T12:02:53.605Z,1.00
2019-05-29T12:05:22.851Z,1.27
2019-05-29T12:07:53.331Z,0.90
2019-05-29T12:10:25.875Z,1.10
2019-05-29T12:12:57.551Z,0.87
2019-05-29T12:15:28.184Z,0.90
2019-05-29T12:18:19.111Z,0.80
2019-05-29T12:20:29.281Z,1.00
2019-05-29T12:23:18.873Z,1.07
2019-05-29T12:25:30.647Z,0.93
2019-05-29T12:28:01.219Z,0.70
2019-05-29T12:30:31.296Z,0.63
2019-05-29T12:33:01.190Z,0.80
2019-05-29T12:35:30.384Z,0.80
2019-05-29T12:37:59.854Z,0.83
2019-05-29T12:40:29.576Z,0.90
2019-05-29T12:43:00.278Z,0.87
2019-05-29T12:45:30.612Z,0.90
2019-05-29T12:48:04.447Z,0.90
2019-05-29T12:50:34.429Z,1.00
2019-05-29T12:53:03.839Z,0.70
2019-05-29T12:55:33.441Z,0.87
2019-05-29T12:58:04.424Z,0.67
2019-05-29T13:00:33.814Z,0.67
2019-05-29T13:03:05.407Z,1.00
2019-05-29T13:05:35.338Z,0.87
2019-05-29T13:08:05.344Z,0.70
2019-05-29T13:10:34.776Z,0.60
2019-05-29T13:13:10.071Z,0.87
2019-05-29T13:15:37.166Z,0.60
2019-05-29T13:18:09.943Z,0.70
2019-05-29T13:20:37.720Z,0.80
2019-05-29T13:23:07.758Z,0.60
2019-05-29T13:25:37.297Z,0.70
2019-05-29T13:28:07.299Z,0.73
2019-05-29T13:30:38.765Z,0.70
2019-05-29T13:33:08.966Z,0.70
2019-05-29T13:35:39.089Z,0.80
2019-05-29T13:38:08.968Z,0.70
2019-05-29T13:40:38.185Z,0.70
2019-05-29T13:43:15.201Z,0.70
2019-05-29T13:45:39.208Z,0.90
2019-05-29T13:48:09.177Z,0.70
2019-05-29T13:50:39.108Z,0.70
2019-05-29T13:53:08.284Z,0.63
2019-05-29T13:55:37.504Z,0.80
2019-05-29T13:58:07.834Z,0.60
2019-05-29T14:00:37.988Z,0.70
2019-05-29T14:03:09.235Z,0.60
2019-05-29T14:05:38.318Z,0.60
2019-05-29T14:08:08.984Z,0.60
2019-05-29T14:10:38.669Z,0.60
2019-05-29T14:13:09.382Z,0.77
2019-05-29T14:15:39.129Z,0.80
2019-05-29T14:18:09.112Z,0.70
2019-05-29T14:20:40.212Z,0.70
2019-05-29T14:23:16.890Z,0.60
2019-05-29T14:25:47.396Z,0.57
2019-05-29T14:28:19.877Z,0.40
2019-05-29T14:30:51.018Z,0.50
2019-05-29T14:33:20.830Z,0.60
2019-05-29T14:35:50.025Z,0.80
2019-05-29T14:38:19.197Z,0.50
2019-05-29T14:40:48.779Z,0.53
2019-05-29T14:43:18.313Z,0.57
2019-05-29T14:45:47.560Z,0.70
2019-05-29T14:48:16.750Z,0.50
2019-05-29T14:50:45.961Z,0.50
2019-05-29T14:53:15.141Z,0.73
2019-05-29T14:55:44.330Z,0.67
2019-05-29T14:58:14.067Z,2.23
2019-05-29T15:00:44.448Z,1.00
2019-05-29T15:03:14.839Z,0.53
2019-05-29T15:05:44.415Z,0.67
2019-05-29T15:08:14.130Z,0.70
2019-05-29T15:10:43.782Z,0.50
2019-05-29T15:13:13.747Z,0.60
2019-05-29T15:15:45.078Z,0.60
2019-05-29T15:18:18.343Z,0.50
2019-05-29T15:20:45.163Z,0.87
2019-05-29T15:23:15.473Z,0.70
2019-05-29T15:25:45.008Z,0.50
2019-05-29T15:28:16.073Z,0.73
2019-05-29T15:30:45.679Z,0.60
2019-05-29T15:33:15.007Z,0.70
2019-05-29T15:35:44.233Z,0.60
2019-05-29T15:38:14.637Z,0.60
2019-05-29T15:40:44.095Z,0.67
2019-05-29T15:43:13.403Z,0.50
2019-05-29T15:45:43.017Z,0.70
2019-05-29T15:48:13.149Z,0.50
2019-05-29T15:50:42.726Z,0.50
2019-05-29T15:53:13.124Z,0.70
2019-05-29T15:55:43.154Z,0.70
2019-05-29T15:58:13.399Z,0.50
2019-05-29T16:00:44.972Z,0.70
2019-05-29T16:03:14.163Z,0.73
2019-05-29T16:05:43.356Z,0.77
2019-05-29T16:08:12.524Z,0.60
2019-05-29T16:10:42.194Z,0.40
2019-05-29T16:13:12.758Z,1.80
2019-05-29T16:15:43.889Z,0.70
2019-05-29T16:18:22.955Z,0.70
2019-05-29T16:20:51.244Z,0.60
2019-05-29T16:23:32.353Z,0.60
2019-05-29T16:25:53.446Z,0.60
2019-05-29T16:28:23.788Z,0.60
2019-05-29T16:30:53.099Z,0.50
2019-05-29T16:33:24.793Z,0.50
2019-05-29T16:35:56.397Z,0.70
2019-05-29T16:38:26.028Z,0.50
2019-05-29T16:40:55.202Z,0.70
2019-05-29T16:43:24.579Z,0.60
2019-05-29T16:46:20.175Z,0.67
2019-05-29T16:48:48.882Z,0.50
2019-05-29T16:51:18.926Z,0.60
2019-05-29T16:53:48.355Z,0.60
2019-05-29T16:56:17.517Z,0.50
2019-05-29T16:58:48.200Z,0.57
2019-05-29T17:01:17.408Z,0.70
2019-05-29T17:03:47.021Z,0.67
2019-05-29T17:06:17.740Z,0.67
2019-05-29T17:08:46.979Z,0.50
2019-05-29T17:11:16.641Z,0.53
2019-05-29T17:13:46.298Z,0.60
2019-05-29T17:16:16.392Z,0.50
2019-05-29T17:18:45.627Z,0.50
2019-05-29T17:21:14.811Z,0.53
2019-05-29T17:23:44.009Z,0.80
2019-05-29T17:26:13.185Z,0.60
2019-05-29T17:28:42.678Z,0.60
2019-05-29T17:31:11.840Z,0.60
2019-05-29T17:33:41.361Z,0.70
2019-05-29T17:36:10.557Z,0.50
2019-05-29T17:38:40.015Z,0.70
2019-05-29T17:41:09.508Z,1.00
2019-05-29T17:43:38.711Z,0.60
2019-05-29T17:46:08.306Z,0.50
2019-05-29T17:48:37.458Z,0.73
2019-05-29T17:51:06.724Z,0.50
2019-05-29T17:53:36.522Z,0.60
2019-05-29T17:56:05.899Z,0.53
2019-05-29T17:58:35.093Z,0.60
2019-05-29T18:01:04.977Z,0.50
2019-05-29T18:03:34.167Z,0.50
2019-05-29T18:06:03.471Z,0.80
2019-05-29T18:08:33.328Z,0.70
2019-05-29T18:11:03.305Z,0.60
2019-05-29T18:13:32.594Z,0.57
2019-05-29T18:16:01.835Z,0.40
2019-05-29T18:18:31.264Z,0.50
2019-05-29T18:21:02.143Z,0.70
2019-05-29T18:23:33.868Z,0.70
2019-05-29T18:26:04.391Z,0.70
2019-05-29T18:28:33.923Z,0.57
2019-05-29T18:31:03.408Z,0.83
2019-05-29T18:33:33.631Z,0.70
2019-05-29T18:36:03.173Z,0.70
2019-05-29T18:38:32.737Z,0.90
2019-05-29T18:41:02.255Z,0.90
2019-05-29T18:43:32.860Z,0.80
2019-05-29T18:46:02.816Z,0.77
2019-05-29T18:48:32.635Z,1.20
2019-05-29T18:51:02.926Z,0.90
2019-05-29T18:53:33.132Z,0.80
2019-05-29T18:56:02.415Z,1.00
2019-05-29T18:58:32.320Z,0.73
2019-05-29T19:01:02.486Z,0.93
2019-05-29T19:03:32.605Z,0.90
2019-05-29T19:06:02.552Z,1.00
2019-05-29T19:08:32.002Z,0.70
2019-05-29T19:11:01.177Z,0.87
2019-05-29T19:13:30.400Z,0.80
2019-05-29T19:15:59.584Z,1.10
2019-05-29T19:18:30.194Z,0.90
2019-05-29T19:20:59.658Z,0.90
2019-05-29T19:23:30.766Z,1.30
2019-05-29T19:26:00.629Z,0.90
2019-05-29T19:28:30.725Z,0.90
2019-05-29T19:31:01.411Z,1.17
2019-05-29T19:33:32.442Z,0.93
2019-05-29T19:36:02.782Z,0.90
2019-05-29T19:38:32.282Z,0.90
2019-05-29T19:41:02.223Z,1.07
2019-05-29T19:43:32.359Z,1.10
2019-05-29T19:46:04.108Z,1.00
2019-05-29T19:48:33.435Z,0.97
2019-05-29T19:51:04.738Z,0.90
2019-05-29T19:53:35.704Z,1.10
2019-05-29T19:56:04.879Z,1.10
2019-05-29T19:58:34.067Z,1.27
2019-05-29T20:01:03.376Z,1.07
2019-05-29T20:03:32.653Z,0.90
2019-05-29T20:06:01.783Z,1.10
2019-05-29T20:08:35.535Z,1.10
2019-05-29T20:11:02.118Z,1.30
2019-05-29T20:13:31.713Z,1.10
2019-05-29T20:16:01.301Z,1.30
2019-05-29T20:18:30.482Z,1.10
2019-05-29T20:20:59.998Z,1.10
2019-05-29T20:23:30.541Z,1.37
2019-05-29T20:26:00.870Z,3.13
2019-05-29T20:28:30.525Z,1.60
2019-05-29T20:31:00.288Z,1.20
2019-05-29T20:33:34.537Z,1.10
2019-05-29T20:36:04.542Z,1.30
2019-05-29T20:38:35.045Z,1.30
2019-05-29T20:41:04.857Z,1.40
2019-05-29T20:43:35.522Z,1.27
2019-05-29T20:46:04.994Z,1.40
2019-05-29T20:48:36.616Z,1.30
2019-05-29T20:51:05.728Z,1.40
2019-05-29T20:53:35.358Z,1.20
2019-05-29T20:56:05.392Z,1.30
2019-05-29T20:58:35.669Z,1.00
2019-05-29T21:01:04.836Z,1.40
2019-05-29T21:03:34.418Z,1.20
2019-05-29T21:06:04.199Z,1.40
2019-05-29T21:08:34.782Z,1.20
2019-05-29T21:11:04.016Z,1.47
2019-05-29T21:13:33.386Z,1.40
2019-05-29T21:16:02.929Z,1.30
2019-05-29T21:18:33.720Z,1.30
2019-05-29T21:21:03.956Z,1.60
2019-05-29T21:23:34.243Z,2.10
2019-05-29T21:26:03.390Z,1.87
2019-05-29T21:28:40.846Z,1.80
2019-05-29T21:31:09.967Z,1.90
2019-05-29T21:33:46.974Z,1.50
2019-05-29T21:36:17.597Z,1.80
2019-05-29T21:38:47.480Z,1.80
2019-05-29T21:41:17.276Z,1.53
2019-05-29T21:43:48.008Z,1.77
2019-05-29T21:46:18.719Z,1.70
2019-05-29T21:48:47.945Z,2.30
2019-05-29T21:51:17.109Z,1.70
2019-05-29T21:53:47.616Z,1.60
2019-05-29T21:56:16.798Z,1.50
2019-05-29T21:59:00.217Z,1.40
2019-05-29T22:01:17.935Z,2.20
2019-05-29T22:03:48.721Z,2.57
2019-05-29T22:06:18.008Z,1.73
2019-05-29T22:08:47.167Z,2.30
2019-05-29T22:11:16.786Z,3.90
2019-05-29T22:13:46.095Z,5.17
2019-05-29T22:16:15.314Z,12.73
2019-05-29T22:18:44.474Z,7.03
2019-05-29T22:21:13.860Z,4.10
2019-05-29T22:23:44.732Z,2.10
2019-05-29T22:26:17.441Z,2.00
2019-05-29T22:28:47.996Z,1.70
2019-05-29T22:31:17.530Z,2.17
2019-05-29T22:33:46.992Z,2.10
2019-05-29T22:36:18.224Z,1.83
2019-05-29T22:38:48.441Z,2.03
2019-05-29T22:41:21.055Z,2.30
2019-05-29T22:43:51.490Z,2.13
2019-05-29T22:46:22.152Z,2.47
2019-05-29T22:48:53.682Z,2.47
2019-05-29T22:51:24.049Z,2.57
2019-05-29T22:53:53.992Z,2.43
2019-05-29T22:56:23.175Z,2.47
2019-05-29T22:58:53.924Z,2.40
2019-05-29T23:01:23.458Z,2.67
2019-05-29T23:03:54.015Z,2.80
2019-05-29T23:06:23.292Z,2.70
2019-05-29T23:08:54.265Z,3.50
2019-05-29T23:11:23.474Z,3.07
2019-05-29T23:13:52.648Z,3.60
2019-05-29T23:16:21.855Z,3.17
2019-05-29T23:18:52.307Z,3.60
2019-05-29T23:21:21.847Z,3.57
2019-05-29T23:23:51.020Z,3.00
2019-05-29T23:26:21.015Z,3.40
2019-05-29T23:28:52.802Z,3.13
2019-05-29T23:31:22.018Z,3.00
2019-05-29T23:33:51.177Z,2.50
2019-05-29T23:36:20.646Z,2.57
2019-05-29T23:38:49.808Z,2.80
2019-05-29T23:41:19.660Z,2.70
2019-05-29T23:43:49.365Z,1.87
2019-05-29T23:46:18.903Z,2.13
2019-05-29T23:48:48.372Z,2.00
2019-05-29T23:51:17.567Z,2.40
2019-05-29T23:53:46.978Z,2.33
2019-05-29T23:56:16.132Z,2.20
2019-05-29T23:58:46.101Z,2.50
